createdAt,value
2023-01-29T00:00:10.472Z,12.80
2023-01-29T00:02:41.254Z,13.60
2023-01-29T00:05:26.652Z,13.60
2023-01-29T00:07:56.395Z,13.70
2023-01-29T00:10:25.370Z,14.90
2023-01-29T00:12:54.040Z,13.70
2023-01-29T00:15:22.120Z,13.80
2023-01-29T00:25:39.964Z,14.90
2023-01-29T00:28:08.153Z,15.40
2023-01-29T00:30:37.058Z,15.40
2023-01-29T00:33:05.442Z,14.60
2023-01-29T00:35:33.881Z,14.00
2023-01-29T00:38:01.799Z,14.70
2023-01-29T00:40:49.928Z,16.70
2023-01-29T00:43:36.883Z,14.70
2023-01-29T00:46:06.643Z,14.40
2023-01-29T00:48:36.212Z,15.50
2023-01-29T00:51:04.408Z,15.00
2023-01-29T00:53:32.504Z,14.80
2023-01-29T00:56:00.698Z,15.60
2023-01-29T00:58:34.539Z,15.40
2023-01-29T01:01:02.792Z,15.30
2023-01-29T01:03:35.526Z,11.30
2023-01-29T01:06:05.337Z,15.20
2023-01-29T01:08:52.119Z,15.80
2023-01-29T01:11:21.592Z,11.60
2023-01-29T01:13:49.480Z,14.90
2023-01-29T01:16:21.455Z,15.80
2023-01-29T01:18:49.521Z,15.00
2023-01-29T01:23:47.156Z,14.10
2023-01-29T01:26:15.770Z,15.10
2023-01-29T01:28:44.322Z,17.20
2023-01-29T01:31:13.433Z,18.60
2023-01-29T01:33:41.643Z,16.90
2023-01-29T01:36:09.885Z,15.50
2023-01-29T01:38:44.502Z,15.70
2023-01-29T01:41:16.589Z,15.50
2023-01-29T01:44:01.637Z,15.60
2023-01-29T01:46:31.401Z,14.80
2023-01-29T01:49:11.993Z,16.80
2023-01-29T01:51:43.401Z,14.70
2023-01-29T01:54:13.525Z,15.70
2023-01-29T01:56:43.985Z,16.50
2023-01-29T01:59:16.448Z,17.00
2023-01-29T02:01:50.166Z,15.90
2023-01-29T02:04:39.639Z,14.60
2023-01-29T02:07:27.475Z,16.40
2023-01-29T02:10:06.397Z,15.10
2023-01-29T02:12:34.986Z,14.60
2023-01-29T02:15:03.098Z,14.90
2023-01-29T02:17:31.526Z,14.00
2023-01-29T02:20:09.098Z,14.10
2023-01-29T02:23:08.833Z,14.40
2023-01-29T02:26:45.945Z,14.80
2023-01-29T02:29:22.688Z,13.30
2023-01-29T02:31:59.775Z,15.80
2023-01-29T02:34:30.080Z,14.80
2023-01-29T02:37:07.259Z,13.80
2023-01-29T02:39:58.272Z,15.00
2023-01-29T02:42:27.279Z,14.60
2023-01-29T02:45:09.893Z,14.30
2023-01-29T02:47:58.801Z,12.30
2023-01-29T02:53:27.840Z,12.80
2023-01-29T02:56:02.383Z,12.80
2023-01-29T02:58:31.989Z,13.60
2023-01-29T03:01:05.180Z,14.30
2023-01-29T03:03:38.568Z,12.90
2023-01-29T03:06:18.357Z,11.30
2023-01-29T03:09:00.524Z,14.60
2023-01-29T03:11:32.955Z,13.60
2023-01-29T03:14:47.405Z,13.40
2023-01-29T03:17:17.354Z,12.90
2023-01-29T03:19:45.442Z,13.80
2023-01-29T03:22:23.541Z,13.00
2023-01-29T03:25:18.903Z,12.90
2023-01-29T03:28:11.435Z,14.60
2023-01-29T03:31:06.580Z,12.20
2023-01-29T03:34:04.410Z,12.00
2023-01-29T03:36:39.913Z,12.50
2023-01-29T03:39:09.135Z,13.60
2023-01-29T03:41:50.125Z,13.60
2023-01-29T03:44:21.989Z,13.00
2023-01-29T03:46:59.347Z,12.80
2023-01-29T03:49:38.137Z,12.50
2023-01-29T03:52:25.125Z,11.80
2023-01-29T03:55:01.438Z,12.00
2023-01-29T03:57:35.609Z,11.90
2023-01-29T04:00:18.075Z,12.90
2023-01-29T04:03:06.778Z,11.80
2023-01-29T04:05:42.820Z,10.50
2023-01-29T04:08:28.161Z,11.80
2023-01-29T04:10:57.963Z,12.30
2023-01-29T04:13:26.180Z,12.90
2023-01-29T04:15:57.188Z,11.70
2023-01-29T04:18:47.452Z,11.80
2023-01-29T04:21:16.544Z,11.60
2023-01-29T04:23:44.991Z,11.90
2023-01-29T04:26:28.228Z,11.70
2023-01-29T04:29:05.536Z,12.30
2023-01-29T04:31:38.365Z,11.70
2023-01-29T04:34:23.615Z,11.80
2023-01-29T04:37:10.132Z,11.40
2023-01-29T04:39:48.735Z,11.60
2023-01-29T04:42:35.422Z,10.90
2023-01-29T04:45:23.528Z,10.30
2023-01-29T04:48:18.999Z,10.70
2023-01-29T04:51:21.111Z,10.20
2023-01-29T04:54:03.157Z,11.90
2023-01-29T04:56:42.441Z,11.10
2023-01-29T04:59:14.278Z,12.20
2023-01-29T05:01:42.298Z,12.10
2023-01-29T05:04:12.115Z,10.30
2023-01-29T05:06:40.327Z,11.70
2023-01-29T05:09:10.068Z,11.60
2023-01-29T05:11:38.241Z,12.60
2023-01-29T05:14:07.445Z,11.60
2023-01-29T05:16:42.904Z,11.80
2023-01-29T05:19:15.124Z,12.60
2023-01-29T05:21:47.845Z,13.00
2023-01-29T05:24:21.529Z,13.30
2023-01-29T05:27:12.672Z,12.40
2023-01-29T05:29:43.880Z,12.30
2023-01-29T05:32:11.909Z,12.00
2023-01-29T05:34:43.545Z,11.70
2023-01-29T05:37:12.106Z,11.60
2023-01-29T05:39:40.093Z,9.00
2023-01-29T05:42:08.057Z,10.90
2023-01-29T05:44:37.137Z,12.70
2023-01-29T05:47:05.293Z,13.00
2023-01-29T05:49:33.276Z,11.70
2023-01-29T05:52:01.381Z,14.30
2023-01-29T05:54:29.857Z,11.10
2023-01-29T05:56:58.005Z,12.60
2023-01-29T05:59:26.201Z,11.90
2023-01-29T06:01:54.383Z,12.70
2023-01-29T06:04:22.304Z,13.60
2023-01-29T06:06:51.576Z,12.80
2023-01-29T08:21:40.406Z,10.70
2023-01-29T08:24:08.596Z,10.40
2023-01-29T08:26:36.942Z,10.30
2023-01-29T08:29:05.267Z,10.70
2023-01-29T08:31:33.807Z,11.20
2023-01-29T08:34:02.585Z,11.20
2023-01-29T08:36:31.030Z,11.80
2023-01-29T08:38:59.116Z,11.90
2023-01-29T08:41:28.401Z,11.90
2023-01-29T08:43:57.285Z,10.90
2023-01-29T08:46:25.301Z,10.30
2023-01-29T08:48:54.150Z,11.00
2023-01-29T08:51:22.405Z,12.20
2023-01-29T08:53:51.430Z,12.50
2023-01-29T08:56:19.901Z,13.00
2023-01-29T08:58:48.012Z,13.90
2023-01-29T09:01:16.210Z,9.90
2023-01-29T09:03:44.838Z,13.50
2023-01-29T09:06:14.031Z,11.20
2023-01-29T09:08:43.489Z,11.90
2023-01-29T09:11:12.253Z,11.20
2023-01-29T09:13:40.289Z,11.60
2023-01-29T09:16:09.672Z,11.20
2023-01-29T09:18:37.870Z,9.80
2023-01-29T09:21:05.918Z,8.90
2023-01-29T09:23:34.090Z,9.30
2023-01-29T09:26:02.111Z,9.30
2023-01-29T09:28:30.440Z,10.20
2023-01-29T09:31:02.572Z,9.00
2023-01-29T09:33:31.316Z,9.40
2023-01-29T09:35:59.332Z,10.00
2023-01-29T09:38:27.571Z,9.50
2023-01-29T09:41:00.510Z,8.60
2023-01-29T09:43:47.483Z,9.20
2023-01-29T09:46:26.422Z,10.00
2023-01-29T09:51:37.959Z,11.60
2023-01-29T09:54:26.070Z,10.50
2023-01-29T09:56:56.573Z,8.90
2023-01-29T09:59:26.770Z,9.00
2023-01-29T10:02:19.525Z,9.20
2023-01-29T10:05:04.939Z,8.70
2023-01-29T10:07:58.443Z,8.60
2023-01-29T10:11:05.238Z,9.10
2023-01-29T10:14:02.522Z,10.00
2023-01-29T10:16:46.909Z,10.10
2023-01-29T10:19:34.535Z,9.30
2023-01-29T10:22:20.902Z,11.00
2023-01-29T10:24:54.348Z,10.00
2023-01-29T10:27:22.432Z,9.20
2023-01-29T10:29:51.170Z,9.30
2023-01-29T10:34:50.441Z,9.20
2023-01-29T10:37:23.281Z,9.00
2023-01-29T10:39:52.142Z,8.90
2023-01-29T10:42:35.421Z,8.80
2023-01-29T10:45:13.452Z,10.50
2023-01-29T10:48:05.005Z,9.90
2023-01-29T10:50:47.390Z,9.40
2023-01-29T10:53:27.961Z,8.60
2023-01-29T10:56:13.886Z,9.40
2023-01-29T10:58:53.859Z,10.90
2023-01-29T11:01:21.873Z,9.90
2023-01-29T11:04:01.416Z,9.50
2023-01-29T11:06:31.541Z,8.40
2023-01-29T11:09:23.626Z,9.50
2023-01-29T11:12:01.778Z,10.10
2023-01-29T11:14:36.045Z,9.60
2023-01-29T11:17:04.690Z,8.80
2023-01-29T11:19:40.286Z,9.30
2023-01-29T11:22:24.800Z,8.80
2023-01-29T11:25:21.091Z,9.50
2023-01-29T11:28:02.249Z,8.20
2023-01-29T11:30:31.848Z,8.10
2023-01-29T11:33:23.820Z,8.20
2023-01-29T11:35:57.030Z,7.60
2023-01-29T11:38:26.263Z,8.40
2023-01-29T11:41:04.784Z,8.30
2023-01-29T11:43:33.222Z,7.90
2023-01-29T11:46:12.586Z,8.60
2023-01-29T11:48:52.065Z,8.80
2023-01-29T11:51:27.727Z,7.40
2023-01-29T11:54:00.508Z,7.10
2023-01-29T11:56:42.517Z,7.50
2023-01-29T11:59:27.546Z,7.20
2023-01-29T12:01:55.486Z,8.30
2023-01-29T12:04:24.557Z,7.10
2023-01-29T14:25:03.859Z,10.00
2023-01-29T14:27:31.044Z,10.80
2023-01-29T14:30:03.076Z,9.90
2023-01-29T14:32:29.817Z,11.00
2023-01-29T14:35:00.837Z,10.70
2023-01-29T14:37:38.208Z,11.70
2023-01-29T14:40:17.972Z,12.70
2023-01-29T14:42:57.457Z,13.40
2023-01-29T14:45:38.545Z,12.60
2023-01-29T14:48:09.839Z,13.60
2023-01-29T14:50:43.584Z,13.70
2023-01-29T14:53:11.582Z,14.10
2023-01-29T14:55:44.564Z,14.50
2023-01-29T14:58:14.913Z,15.60
2023-01-29T15:00:45.069Z,15.10
2023-01-29T15:03:39.699Z,16.40
2023-01-29T15:06:08.387Z,16.10
2023-01-29T15:09:02.646Z,16.20
2023-01-29T15:11:35.541Z,16.40
2023-01-29T15:14:33.479Z,16.40
2023-01-29T15:17:22.461Z,17.00
2023-01-29T15:19:50.634Z,17.80
2023-01-29T15:22:22.310Z,16.20
2023-01-29T15:25:10.363Z,16.50
2023-01-29T15:27:41.964Z,13.90
2023-01-29T15:30:22.120Z,18.60
2023-01-29T15:32:50.311Z,17.50
2023-01-29T15:35:21.766Z,17.10
2023-01-29T15:38:06.538Z,16.70
2023-01-29T15:40:34.806Z,17.00
2023-01-29T15:43:02.874Z,17.60
2023-01-29T15:45:32.196Z,16.40
2023-01-29T15:48:05.874Z,17.40
2023-01-29T15:50:36.102Z,16.90
2023-01-29T15:53:07.003Z,17.70
2023-01-29T15:55:34.932Z,18.10
2023-01-29T15:58:03.088Z,17.00
2023-01-29T16:00:31.545Z,17.20
2023-01-29T16:03:02.566Z,18.50
2023-01-29T16:05:33.026Z,19.10
2023-01-29T16:08:01.510Z,19.50
2023-01-29T16:10:31.423Z,19.00
2023-01-29T16:12:59.555Z,18.80
2023-01-29T16:15:35.964Z,19.10
2023-01-29T16:18:17.036Z,19.50
2023-01-29T16:20:45.837Z,18.00
2023-01-29T16:23:22.421Z,19.10
2023-01-29T16:25:50.496Z,19.10
2023-01-29T16:28:18.777Z,21.00
2023-01-29T16:30:46.955Z,19.80
2023-01-29T16:33:15.878Z,18.90
2023-01-29T16:35:43.985Z,18.90
2023-01-29T16:38:25.099Z,19.20
2023-01-29T16:41:08.710Z,19.30
2023-01-29T16:43:52.301Z,19.10
2023-01-29T16:46:38.037Z,20.10
2023-01-29T16:49:31.376Z,20.40
2023-01-29T16:52:28.125Z,18.60
2023-01-29T16:55:21.335Z,18.60
2023-01-29T16:57:53.803Z,19.30
2023-01-29T17:00:29.135Z,18.10
2023-01-29T17:03:04.276Z,19.20
2023-01-29T17:05:34.887Z,18.00
2023-01-29T17:08:03.138Z,17.60
2023-01-29T17:10:31.940Z,17.50
2023-01-29T17:13:07.339Z,17.20
2023-01-29T17:15:45.206Z,17.40
2023-01-29T17:18:22.011Z,16.20
2023-01-29T17:20:51.453Z,16.20
2023-01-29T17:23:19.732Z,18.20
2023-01-29T17:25:48.017Z,16.80
2023-01-29T17:28:17.518Z,14.30
2023-01-29T17:30:56.535Z,16.00
2023-01-29T17:33:28.700Z,15.90
2023-01-29T17:35:56.877Z,16.70
2023-01-29T17:38:26.562Z,15.90
2023-01-29T17:41:03.467Z,15.60
2023-01-29T17:43:31.970Z,14.70
2023-01-29T17:46:00.083Z,14.80
2023-01-29T17:48:28.912Z,14.40
2023-01-29T17:50:58.911Z,13.10
2023-01-29T17:53:43.243Z,12.60
2023-01-29T17:56:17.421Z,13.40
2023-01-29T17:58:45.870Z,12.40
2023-01-29T18:01:13.942Z,12.30
2023-01-29T18:03:42.314Z,12.30
2023-01-29T20:19:32.973Z,18.20
2023-01-29T20:22:01.202Z,15.20
2023-01-29T20:24:30.548Z,16.50
2023-01-29T20:26:59.069Z,15.90
2023-01-29T20:29:28.637Z,15.30
2023-01-29T20:31:57.633Z,16.20
2023-01-29T20:34:26.332Z,16.00
2023-01-29T20:36:54.584Z,16.20
2023-01-29T20:39:22.599Z,17.80
2023-01-29T20:41:50.575Z,16.80
2023-01-29T20:44:19.547Z,16.80
2023-01-29T20:46:47.800Z,17.50
2023-01-29T20:49:17.609Z,17.40
2023-01-29T20:51:45.925Z,18.70
2023-01-29T20:54:14.161Z,18.20
2023-01-29T20:56:45.177Z,19.70
2023-01-29T20:59:15.129Z,19.60
2023-01-29T21:01:44.366Z,20.10
2023-01-29T21:04:12.389Z,19.30
2023-01-29T21:06:40.571Z,20.60
2023-01-29T21:09:13.140Z,20.10
2023-01-29T21:11:41.131Z,19.40
2023-01-29T21:14:09.138Z,13.70
2023-01-29T21:16:37.572Z,19.30
2023-01-29T21:19:05.705Z,19.80
2023-01-29T21:21:34.834Z,18.40
2023-01-29T21:26:30.824Z,18.30
2023-01-29T21:28:58.828Z,18.80
2023-01-29T21:31:27.375Z,18.20
2023-01-29T21:33:55.489Z,18.90
2023-01-29T21:36:23.557Z,20.60
2023-01-29T21:38:51.831Z,20.30
2023-01-29T21:41:40.444Z,21.20
2023-01-29T21:44:08.559Z,21.10
2023-01-29T21:46:36.729Z,19.80
2023-01-29T21:49:04.803Z,18.90
2023-01-29T21:51:32.987Z,20.40
2023-01-29T21:54:03.609Z,18.40
2023-01-29T21:56:32.235Z,19.60
2023-01-29T21:59:02.409Z,20.90
2023-01-29T22:01:41.377Z,22.20
2023-01-29T22:04:09.899Z,26.00
2023-01-29T22:06:37.916Z,25.80
2023-01-29T22:09:07.536Z,26.30
2023-01-29T22:11:36.194Z,26.50
2023-01-29T22:14:04.987Z,26.80
2023-01-29T22:16:33.286Z,27.00
2023-01-29T22:19:01.992Z,25.70
2023-01-29T22:21:30.142Z,25.50
2023-01-29T22:23:58.179Z,24.70
2023-01-29T22:26:26.320Z,26.90
2023-01-29T22:28:54.632Z,24.70
2023-01-29T22:31:22.645Z,24.80
2023-01-29T22:33:50.720Z,25.00
2023-01-29T22:36:19.462Z,22.80
2023-01-29T22:38:47.734Z,23.20
2023-01-29T22:41:16.131Z,22.00
2023-01-29T22:43:44.081Z,21.80
2023-01-29T22:46:12.193Z,21.90
2023-01-29T22:48:42.222Z,22.00
2023-01-29T22:51:10.657Z,22.80
2023-01-29T22:53:40.451Z,20.00
2023-01-29T22:56:09.258Z,20.20
2023-01-29T22:58:37.546Z,21.00
2023-01-29T23:01:05.562Z,21.20
2023-01-29T23:03:33.959Z,21.20
2023-01-29T23:06:03.058Z,21.30
2023-01-29T23:08:32.991Z,21.90
2023-01-29T23:11:14.697Z,20.60
2023-01-29T23:13:53.534Z,21.70
2023-01-29T23:16:25.292Z,21.30
2023-01-29T23:18:54.709Z,20.70
2023-01-29T23:21:25.014Z,21.80
2023-01-29T23:23:55.500Z,21.00
2023-01-29T23:26:42.161Z,20.60
2023-01-29T23:29:10.397Z,21.70
2023-01-29T23:31:38.820Z,21.50
2023-01-29T23:34:06.861Z,22.30
2023-01-29T23:36:34.950Z,22.90
2023-01-29T23:39:02.954Z,21.70
2023-01-29T23:41:31.767Z,22.00
2023-01-29T23:43:59.754Z,21.60
2023-01-29T23:46:28.236Z,20.40
2023-01-29T23:48:56.375Z,21.30
2023-01-29T23:51:24.479Z,22.20
2023-01-29T23:53:52.443Z,21.10
2023-01-29T23:56:20.521Z,19.30
2023-01-29T23:58:57.048Z,20.00
